createdAt,value
2019-05-09T00:01:49.101Z,78.50
2019-05-09T00:04:17.587Z,78.30
2019-05-09T00:06:46.099Z,78.60
2019-05-09T00:09:14.547Z,78.80
2019-05-09T00:11:43.974Z,78.30
2019-05-09T00:14:13.571Z,78.30
2019-05-09T00:16:43.926Z,78.40
2019-05-09T00:19:13.569Z,78.40
2019-05-09T00:21:49.634Z,78.30
2019-05-09T00:24:18.080Z,78.30
2019-05-09T00:26:46.576Z,78.20
2019-05-09T00:29:16.737Z,78.80
2019-05-09T00:31:49.821Z,78.20
2019-05-09T00:34:25.717Z,78.30
2019-05-09T00:36:54.211Z,78.30
2019-05-09T00:39:23.674Z,78.50
2019-05-09T00:41:53.885Z,78.70
2019-05-09T00:44:24.180Z,78.60
2019-05-09T00:46:54.284Z,78.30
2019-05-09T00:49:24.401Z,78.20
2019-05-09T00:51:54.024Z,78.20
2019-05-09T00:54:24.058Z,78.30
2019-05-09T00:56:54.029Z,78.40
2019-05-09T00:59:24.091Z,78.50
2019-05-09T01:01:54.356Z,78.50
2019-05-09T01:04:24.103Z,78.80
2019-05-09T01:06:53.975Z,78.60
2019-05-09T01:09:24.173Z,78.80
2019-05-09T01:11:53.452Z,78.60
2019-05-09T01:14:23.397Z,78.90
2019-05-09T01:16:53.469Z,78.60
2019-05-09T01:19:23.332Z,78.90
2019-05-09T01:21:54.027Z,78.80
2019-05-09T01:24:23.251Z,78.70
2019-05-09T01:26:54.016Z,78.80
2019-05-09T01:29:23.099Z,78.90
2019-05-09T01:31:54.105Z,78.90
2019-05-09T01:34:24.376Z,78.70
2019-05-09T01:37:05.990Z,78.90
2019-05-09T01:39:37.725Z,78.90
2019-05-09T01:42:06.638Z,79.00
2019-05-09T01:44:35.082Z,78.90
2019-05-09T01:47:03.985Z,78.90
2019-05-09T01:49:34.107Z,78.90
2019-05-09T01:52:03.588Z,79.00
2019-05-09T01:54:34.247Z,79.00
2019-05-09T01:57:03.235Z,78.90
2019-05-09T01:59:34.032Z,78.80
2019-05-09T02:02:08.133Z,79.10
2019-05-09T02:04:33.625Z,79.10
2019-05-09T02:07:04.018Z,79.20
2019-05-09T02:09:34.218Z,79.00
2019-05-09T02:12:03.793Z,78.90
2019-05-09T02:14:34.474Z,78.90
2019-05-09T02:17:10.464Z,79.10
2019-05-09T02:19:43.945Z,79.10
2019-05-09T02:22:30.767Z,78.70
2019-05-09T02:24:58.436Z,78.60
2019-05-09T02:27:26.915Z,78.50
2019-05-09T02:29:55.439Z,78.30
2019-05-09T02:32:26.478Z,78.20
2019-05-09T02:34:55.979Z,78.00
2019-05-09T02:37:24.425Z,77.80
2019-05-09T02:39:52.956Z,78.00
2019-05-09T02:42:21.413Z,77.80
2019-05-09T02:44:50.444Z,78.50
2019-05-09T02:47:20.610Z,78.50
2019-05-09T02:49:49.069Z,78.70
2019-05-09T02:52:19.724Z,78.60
2019-05-09T02:54:49.941Z,78.60
2019-05-09T02:57:18.660Z,78.90
2019-05-09T02:59:54.942Z,78.80
2019-05-09T03:02:28.952Z,78.90
2019-05-09T03:04:58.117Z,78.80
2019-05-09T03:07:48.269Z,79.00
2019-05-09T03:10:18.998Z,79.40
2019-05-09T03:12:49.814Z,79.20
2019-05-09T03:15:18.629Z,79.10
2019-05-09T03:17:49.536Z,79.70
2019-05-09T03:20:35.039Z,78.90
2019-05-09T03:23:03.497Z,79.10
2019-05-09T03:25:32.569Z,78.90
2019-05-09T03:28:02.869Z,79.20
2019-05-09T03:30:32.962Z,79.10
2019-05-09T03:33:01.402Z,79.20
2019-05-09T03:35:29.966Z,79.30
2019-05-09T03:38:08.380Z,79.40
2019-05-09T03:40:39.200Z,80.50
2019-05-09T03:43:08.081Z,79.80
2019-05-09T03:45:38.454Z,80.00
2019-05-09T03:48:08.663Z,80.00
2019-05-09T03:50:38.282Z,80.20
2019-05-09T03:53:08.380Z,80.20
2019-05-09T03:55:38.343Z,80.20
2019-05-09T03:58:08.653Z,80.20
2019-05-09T04:00:37.604Z,80.20
2019-05-09T04:03:08.115Z,80.70
2019-05-09T04:05:37.633Z,80.80
2019-05-09T04:08:19.199Z,81.00
2019-05-09T04:10:50.199Z,81.00
2019-05-09T04:13:20.593Z,80.80
2019-05-09T04:15:49.140Z,81.10
2019-05-09T04:18:17.804Z,81.30
2019-05-09T04:20:48.220Z,81.40
2019-05-09T04:23:18.630Z,81.50
2019-05-09T04:25:54.432Z,81.40
2019-05-09T04:28:22.140Z,81.40
2019-05-09T04:30:50.588Z,81.70
2019-05-09T04:33:19.029Z,81.70
2019-05-09T04:35:47.659Z,81.60
2019-05-09T04:38:17.913Z,81.60
2019-05-09T04:40:48.763Z,81.60
2019-05-09T04:43:26.747Z,81.70
2019-05-09T04:46:00.783Z,81.60
2019-05-09T04:48:32.878Z,81.60
2019-05-09T04:51:03.165Z,81.40
2019-05-09T04:53:32.556Z,81.40
2019-05-09T04:56:02.830Z,81.60
2019-05-09T04:58:31.288Z,81.40
2019-05-09T05:01:19.767Z,81.10
2019-05-09T05:03:49.966Z,81.00
2019-05-09T05:06:20.715Z,81.00
2019-05-09T05:08:48.646Z,80.50
2019-05-09T05:11:17.805Z,80.40
2019-05-09T05:13:48.139Z,80.30
2019-05-09T05:16:18.440Z,80.00
2019-05-09T05:18:47.803Z,80.00
2019-05-09T05:21:20.038Z,79.60
2019-05-09T05:23:48.292Z,80.20
2019-05-09T05:26:18.334Z,79.70
2019-05-09T05:28:47.445Z,79.40
2019-05-09T05:31:18.102Z,78.60
2019-05-09T05:33:51.092Z,78.40
2019-05-09T05:36:19.798Z,77.80
2019-05-09T05:38:48.362Z,77.60
2019-05-09T05:41:18.266Z,78.20
2019-05-09T05:43:47.909Z,77.70
2019-05-09T05:46:18.406Z,77.00
2019-05-09T05:48:48.658Z,76.70
2019-05-09T05:51:18.462Z,76.30
2019-05-09T05:53:48.065Z,75.70
2019-05-09T05:56:17.639Z,76.00
2019-05-09T05:58:48.804Z,74.80
2019-05-09T06:01:18.757Z,75.20
2019-05-09T06:03:48.127Z,75.30
2019-05-09T06:06:17.534Z,75.30
2019-05-09T06:08:48.380Z,73.90
2019-05-09T06:11:17.685Z,74.30
2019-05-09T06:13:54.377Z,73.70
2019-05-09T06:16:18.203Z,73.30
2019-05-09T06:18:47.541Z,73.30
2019-05-09T06:21:17.746Z,73.40
2019-05-09T06:23:48.237Z,73.00
2019-05-09T06:26:18.581Z,72.60
2019-05-09T06:28:48.147Z,71.50
2019-05-09T06:31:17.856Z,72.10
2019-05-09T06:33:52.978Z,71.30
2019-05-09T06:36:18.843Z,71.80
2019-05-09T06:38:48.784Z,71.10
2019-05-09T06:41:17.670Z,71.00
2019-05-09T06:43:49.675Z,70.60
2019-05-09T06:46:27.739Z,71.50
2019-05-09T06:49:17.962Z,70.70
2019-05-09T06:51:27.701Z,69.90
2019-05-09T06:53:58.375Z,71.00
2019-05-09T06:56:28.303Z,69.90
2019-05-09T06:58:58.266Z,69.60
2019-05-09T07:01:31.075Z,68.80
2019-05-09T07:04:09.003Z,68.20
2019-05-09T07:06:38.557Z,68.50
2019-05-09T07:09:18.572Z,68.80
2019-05-09T07:11:48.634Z,67.80
2019-05-09T07:14:31.842Z,66.80
2019-05-09T07:16:58.576Z,67.50
2019-05-09T07:19:28.021Z,67.30
2019-05-09T07:22:04.318Z,67.10
2019-05-09T07:24:33.641Z,67.60
2019-05-09T07:27:02.091Z,67.70
2019-05-09T07:29:32.255Z,67.50
2019-05-09T07:32:18.166Z,68.10
2019-05-09T07:34:48.518Z,68.30
2019-05-09T07:37:18.627Z,67.40
2019-05-09T07:39:48.453Z,67.50
2019-05-09T07:42:18.010Z,67.10
2019-05-09T07:44:51.999Z,67.40
2019-05-09T07:47:17.767Z,66.50
2019-05-09T07:49:48.178Z,67.40
2019-05-09T07:52:18.571Z,67.30
2019-05-09T07:54:48.304Z,68.40
2019-05-09T07:57:18.204Z,68.60
2019-05-09T07:59:47.853Z,68.00
2019-05-09T08:02:17.668Z,68.70
2019-05-09T08:04:48.669Z,68.40
2019-05-09T08:07:17.584Z,68.10
2019-05-09T08:09:47.596Z,69.40
2019-05-09T08:12:17.961Z,68.80
2019-05-09T08:15:06.648Z,68.00
2019-05-09T08:17:18.140Z,68.00
2019-05-09T08:19:48.422Z,68.20
2019-05-09T08:22:24.518Z,66.30
2019-05-09T08:24:48.352Z,66.30
2019-05-09T08:27:17.600Z,66.10
2019-05-09T08:29:47.860Z,66.60
2019-05-09T08:32:18.102Z,65.70
2019-05-09T08:34:48.247Z,66.70
2019-05-09T08:37:17.566Z,66.60
2019-05-09T08:39:48.242Z,65.60
2019-05-09T08:42:19.632Z,65.80
2019-05-09T08:44:48.207Z,66.20
2019-05-09T08:47:18.465Z,66.80
2019-05-09T08:49:49.599Z,67.80
2019-05-09T08:52:19.868Z,67.80
2019-05-09T08:54:50.292Z,67.50
2019-05-09T08:57:18.781Z,67.40
2019-05-09T08:59:50.554Z,67.00
2019-05-09T09:02:21.821Z,67.20
2019-05-09T09:04:48.912Z,68.20
2019-05-09T09:07:18.970Z,67.70
2019-05-09T09:09:48.370Z,67.40
2019-05-09T09:12:38.383Z,67.30
2019-05-09T09:15:08.072Z,67.80
2019-05-09T09:17:38.522Z,65.90
2019-05-09T09:20:07.914Z,67.50
2019-05-09T09:22:37.571Z,66.90
2019-05-09T09:25:07.737Z,64.80
2019-05-09T09:27:38.076Z,65.50
2019-05-09T09:30:17.706Z,67.10
2019-05-09T09:32:38.752Z,65.80
2019-05-09T09:35:08.228Z,66.00
2019-05-09T09:37:47.570Z,68.40
2019-05-09T09:40:08.851Z,66.40
2019-05-09T09:42:39.626Z,65.60
2019-05-09T09:45:08.015Z,66.90
2019-05-09T09:47:39.543Z,66.20
2019-05-09T09:50:08.799Z,65.40
2019-05-09T09:52:38.436Z,65.50
2019-05-09T09:55:08.974Z,64.90
2019-05-09T09:57:37.869Z,65.40
2019-05-09T10:00:27.347Z,65.10
2019-05-09T10:02:55.925Z,64.80
2019-05-09T10:05:24.397Z,63.60
2019-05-09T10:07:52.917Z,64.80
2019-05-09T10:10:36.187Z,62.70
2019-05-09T10:13:05.284Z,62.10
2019-05-09T10:15:51.908Z,62.30
2019-05-09T10:18:28.289Z,61.80
2019-05-09T10:20:58.699Z,60.40
2019-05-09T10:23:27.253Z,60.20
2019-05-09T10:25:57.929Z,61.00
2019-05-09T10:28:29.811Z,62.00
2019-05-09T10:30:57.686Z,59.20
2019-05-09T10:33:28.034Z,58.80
2019-05-09T10:36:03.260Z,60.90
2019-05-09T10:38:27.997Z,59.90
2019-05-09T10:41:00.773Z,59.40
2019-05-09T10:43:38.885Z,59.60
2019-05-09T10:46:22.985Z,58.70
2019-05-09T10:49:08.289Z,59.70
2019-05-09T10:51:37.245Z,58.20
2019-05-09T10:54:07.904Z,58.00
2019-05-09T10:56:38.151Z,59.30
2019-05-09T10:59:07.772Z,62.00
2019-05-09T11:01:38.152Z,60.80
2019-05-09T11:04:08.217Z,61.20
2019-05-09T11:06:38.221Z,63.40
2019-05-09T11:09:09.277Z,62.90
2019-05-09T11:11:37.884Z,63.10
2019-05-09T11:14:08.535Z,62.50
2019-05-09T11:16:44.934Z,64.50
2019-05-09T11:19:08.072Z,64.00
2019-05-09T11:21:39.069Z,64.70
2019-05-09T11:24:08.421Z,63.90
2019-05-09T11:26:39.537Z,63.80
2019-05-09T11:29:07.971Z,63.80
2019-05-09T11:31:38.467Z,62.00
2019-05-09T11:34:08.839Z,64.40
2019-05-09T11:36:38.010Z,64.20
2019-05-09T11:39:10.782Z,60.40
2019-05-09T11:41:38.539Z,62.00
2019-05-09T11:44:08.587Z,61.50
2019-05-09T11:46:38.242Z,62.50
2019-05-09T11:49:08.245Z,62.50
2019-05-09T11:51:37.247Z,63.30
2019-05-09T11:54:05.837Z,63.90
2019-05-09T11:56:34.420Z,63.10
2019-05-09T11:59:02.878Z,64.90
2019-05-09T12:01:31.401Z,62.30
2019-05-09T12:04:00.233Z,61.60
2019-05-09T12:06:29.321Z,61.00
2019-05-09T12:08:58.755Z,63.10
2019-05-09T12:11:27.676Z,60.10
2019-05-09T12:13:58.133Z,59.80
2019-05-09T12:16:27.944Z,60.30
2019-05-09T12:18:58.389Z,58.10
2019-05-09T12:21:28.319Z,60.70
2019-05-09T12:23:58.094Z,60.10
2019-05-09T12:26:29.289Z,61.50
2019-05-09T12:28:57.808Z,59.60
2019-05-09T12:31:28.768Z,59.10
2019-05-09T12:33:59.148Z,59.10
2019-05-09T12:36:28.574Z,59.20
2019-05-09T12:38:59.094Z,59.20
2019-05-09T12:41:31.418Z,60.70
2019-05-09T12:43:57.898Z,59.40
2019-05-09T12:46:28.435Z,59.10
2019-05-09T12:48:59.175Z,60.60
2019-05-09T12:51:28.297Z,60.20
2019-05-09T12:53:57.940Z,61.50
2019-05-09T12:56:28.480Z,62.00
2019-05-09T12:58:57.938Z,59.50
2019-05-09T13:01:26.644Z,58.50
2019-05-09T13:03:55.195Z,57.60
2019-05-09T13:06:23.783Z,57.70
2019-05-09T13:08:52.406Z,56.90
2019-05-09T13:11:21.141Z,58.10
2019-05-09T13:13:49.605Z,58.60
2019-05-09T13:16:42.617Z,58.40
2019-05-09T13:19:03.404Z,58.30
2019-05-09T13:21:32.744Z,58.40
2019-05-09T13:24:01.519Z,57.60
2019-05-09T13:26:30.235Z,58.30
2019-05-09T13:28:59.067Z,57.10
2019-05-09T13:31:29.409Z,55.80
2019-05-09T13:33:58.675Z,56.80
2019-05-09T13:36:28.520Z,58.30
2019-05-09T13:39:04.134Z,57.30
2019-05-09T13:41:27.625Z,57.80
2019-05-09T13:43:59.274Z,58.60
2019-05-09T13:46:28.301Z,58.10
2019-05-09T13:49:08.383Z,57.20
2019-05-09T13:51:26.755Z,56.50
2019-05-09T13:53:55.333Z,54.60
2019-05-09T13:56:23.940Z,53.20
2019-05-09T13:58:52.392Z,52.00
2019-05-09T14:01:20.841Z,54.20
2019-05-09T14:03:49.356Z,53.10
2019-05-09T14:06:17.875Z,52.90
2019-05-09T14:08:48.954Z,52.30
2019-05-09T14:11:19.086Z,52.10
2019-05-09T14:13:48.796Z,55.10
2019-05-09T14:16:21.709Z,55.00
2019-05-09T14:18:48.585Z,54.80
2019-05-09T14:21:21.562Z,54.50
2019-05-09T14:24:00.725Z,55.20
2019-05-09T14:26:18.138Z,55.10
2019-05-09T14:28:48.855Z,54.00
2019-05-09T14:31:18.661Z,55.50
2019-05-09T14:33:47.727Z,54.10
2019-05-09T14:36:16.489Z,53.60
2019-05-09T14:38:45.081Z,52.50
2019-05-09T14:41:13.590Z,51.90
2019-05-09T14:43:42.046Z,51.50
2019-05-09T14:46:10.516Z,53.00
2019-05-09T14:48:39.101Z,52.40
2019-05-09T14:51:07.889Z,53.40
2019-05-09T14:53:38.920Z,53.80
2019-05-09T14:56:08.758Z,57.00
2019-05-09T14:58:38.791Z,59.70
2019-05-09T15:01:08.596Z,59.10
2019-05-09T15:03:38.938Z,58.80
2019-05-09T15:06:07.776Z,59.80
2019-05-09T15:08:38.220Z,58.50
2019-05-09T15:11:09.845Z,58.70
2019-05-09T15:13:36.616Z,60.10
2019-05-09T15:16:05.148Z,61.20
2019-05-09T15:18:33.636Z,60.00
2019-05-09T15:21:02.092Z,58.50
2019-05-09T15:23:30.614Z,59.70
2019-05-09T15:25:59.117Z,58.90
2019-05-09T15:28:29.125Z,59.20
2019-05-09T15:30:59.362Z,58.30
2019-05-09T15:33:28.167Z,58.80
2019-05-09T15:35:58.944Z,58.60
2019-05-09T15:38:29.076Z,58.10
2019-05-09T15:40:57.192Z,58.60
2019-05-09T15:43:26.557Z,59.50
2019-05-09T15:45:58.133Z,60.30
2019-05-09T15:48:27.529Z,61.30
2019-05-09T15:50:58.137Z,61.20
2019-05-09T15:53:27.851Z,63.00
2019-05-09T15:55:58.599Z,63.10
2019-05-09T15:58:48.694Z,63.50
2019-05-09T16:01:18.358Z,63.70
2019-05-09T16:03:48.660Z,65.00
2019-05-09T16:06:19.282Z,65.60
2019-05-09T16:08:47.112Z,64.80
2019-05-09T16:11:17.823Z,65.10
2019-05-09T16:13:47.796Z,65.10
2019-05-09T16:16:17.621Z,65.60
2019-05-09T16:18:48.495Z,65.50
2019-05-09T16:21:16.389Z,65.40
2019-05-09T16:23:44.889Z,64.20
2019-05-09T16:26:13.333Z,63.80
2019-05-09T16:28:41.787Z,65.20
2019-05-09T16:31:10.279Z,67.00
2019-05-09T16:33:38.724Z,65.20
2019-05-09T16:36:07.192Z,64.40
2019-05-09T16:38:43.438Z,64.40
2019-05-09T16:41:07.726Z,63.30
2019-05-09T16:43:38.173Z,63.20
2019-05-09T16:46:07.583Z,63.60
2019-05-09T16:48:36.276Z,64.20
2019-05-09T16:51:04.799Z,63.90
2019-05-09T16:53:33.286Z,63.40
2019-05-09T16:56:02.006Z,64.30
2019-05-09T16:58:30.460Z,64.20
2019-05-09T17:00:59.021Z,63.90
2019-05-09T17:03:28.374Z,68.40
2019-05-09T17:05:58.275Z,68.90
2019-05-09T17:08:28.218Z,69.30
2019-05-09T17:10:58.728Z,68.50
2019-05-09T17:13:28.849Z,68.70
2019-05-09T17:15:57.750Z,69.20
2019-05-09T17:18:28.371Z,69.50
2019-05-09T17:21:00.041Z,71.20
2019-05-09T17:23:29.706Z,71.40
2019-05-09T17:25:58.315Z,70.70
2019-05-09T17:28:28.451Z,69.00
2019-05-09T17:30:57.926Z,69.50
2019-05-09T17:33:28.687Z,68.50
2019-05-09T17:35:57.763Z,69.10
2019-05-09T17:38:27.890Z,70.00
2019-05-09T17:40:57.723Z,69.70
2019-05-09T17:43:27.821Z,70.10
2019-05-09T17:45:58.491Z,70.40
2019-05-09T17:48:28.590Z,70.30
2019-05-09T17:50:57.866Z,71.30
2019-05-09T17:53:29.332Z,70.10
2019-05-09T17:55:58.654Z,69.00
2019-05-09T17:58:32.840Z,70.30
2019-05-09T18:00:57.741Z,68.90
2019-05-09T18:03:28.879Z,68.90
2019-05-09T18:05:57.692Z,69.50
2019-05-09T18:08:28.310Z,69.50
2019-05-09T18:10:58.373Z,69.70
2019-05-09T18:13:29.536Z,68.20
2019-05-09T18:15:57.446Z,67.00
2019-05-09T18:18:28.332Z,67.60
2019-05-09T18:20:58.017Z,67.40
2019-05-09T18:23:28.359Z,67.60
2019-05-09T18:25:58.556Z,66.90
2019-05-09T18:28:29.108Z,66.90
2019-05-09T18:30:58.533Z,65.90
2019-05-09T18:33:29.026Z,65.40
2019-05-09T18:35:57.676Z,66.00
2019-05-09T18:38:29.409Z,65.70
2019-05-09T18:40:58.211Z,66.70
2019-05-09T18:43:27.414Z,66.90
2019-05-09T18:45:57.813Z,67.40
2019-05-09T18:48:27.813Z,67.90
2019-05-09T18:50:56.639Z,67.50
2019-05-09T18:53:25.366Z,67.60
2019-05-09T18:55:53.904Z,68.40
2019-05-09T18:58:22.501Z,68.50
2019-05-09T19:00:51.635Z,67.60
2019-05-09T19:03:20.133Z,65.80
2019-05-09T19:05:48.647Z,65.70
2019-05-09T19:08:17.212Z,65.10
2019-05-09T19:10:45.681Z,64.70
2019-05-09T19:13:14.141Z,64.40
2019-05-09T19:15:59.038Z,64.00
2019-05-09T19:18:29.206Z,64.90
2019-05-09T19:20:59.321Z,64.40
2019-05-09T19:23:27.940Z,64.70
2019-05-09T19:25:58.096Z,65.50
2019-05-09T19:28:26.541Z,65.20
2019-05-09T19:30:55.109Z,64.20
2019-05-09T19:33:23.559Z,64.80
2019-05-09T19:35:52.017Z,64.40
2019-05-09T19:38:20.508Z,64.30
2019-05-09T19:40:48.977Z,62.50
2019-05-09T19:43:17.438Z,63.20
2019-05-09T19:45:46.103Z,62.40
2019-05-09T19:48:14.545Z,63.30
2019-05-09T19:50:43.200Z,63.80
2019-05-09T19:53:11.762Z,63.00
2019-05-09T19:55:41.346Z,61.70
2019-05-09T19:58:09.833Z,62.70
2019-05-09T20:00:38.332Z,62.80
2019-05-09T20:03:07.137Z,63.00
2019-05-09T20:05:35.580Z,62.80
2019-05-09T20:08:04.231Z,63.60
2019-05-09T20:10:50.642Z,63.60
2019-05-09T20:13:20.882Z,63.10
2019-05-09T20:15:49.398Z,62.20
2019-05-09T20:18:17.928Z,62.40
2019-05-09T20:20:46.448Z,62.10
2019-05-09T20:23:14.907Z,63.10
2019-05-09T20:25:43.386Z,62.40
2019-05-09T20:28:11.893Z,62.50
2019-05-09T20:30:40.349Z,62.10
2019-05-09T20:33:08.845Z,61.90
2019-05-09T20:35:37.373Z,62.20
2019-05-09T20:38:06.103Z,63.00
2019-05-09T20:40:34.783Z,62.70
2019-05-09T20:43:03.608Z,63.90
2019-05-09T20:45:32.323Z,63.40
2019-05-09T20:48:00.977Z,64.10
2019-05-09T20:50:29.712Z,64.10
2019-05-09T20:53:09.304Z,63.80
2019-05-09T20:55:28.720Z,63.50
2019-05-09T20:57:57.555Z,63.10
2019-05-09T21:00:26.340Z,63.60
2019-05-09T21:02:54.979Z,63.60
2019-05-09T21:05:23.661Z,63.80
2019-05-09T21:07:52.303Z,64.40
2019-05-09T21:10:21.026Z,63.70
2019-05-09T21:12:49.695Z,64.40
2019-05-09T21:15:18.410Z,64.70
2019-05-09T21:17:47.039Z,64.80
2019-05-09T21:20:15.940Z,64.50
2019-05-09T21:22:44.601Z,64.50
2019-05-09T21:25:13.437Z,64.40
2019-05-09T21:27:42.141Z,63.90
2019-05-09T21:30:10.940Z,65.00
2019-05-09T21:32:39.589Z,64.70
2019-05-09T21:35:08.511Z,64.50
2019-05-09T21:37:37.055Z,65.10
2019-05-09T21:40:07.985Z,64.70
2019-05-09T21:42:36.649Z,65.20
2019-05-09T21:45:06.338Z,65.60
2019-05-09T21:47:34.974Z,65.40
2019-05-09T21:50:05.021Z,65.70
2019-05-09T21:52:33.558Z,65.30
2019-05-09T21:55:02.093Z,65.70
2019-05-09T21:57:30.583Z,65.90
2019-05-09T21:59:59.033Z,65.90
2019-05-09T22:02:27.566Z,66.40
2019-05-09T22:04:56.081Z,66.10
2019-05-09T22:07:24.529Z,66.30
2019-05-09T22:09:52.993Z,66.60
2019-05-09T22:12:21.666Z,66.00
2019-05-09T22:14:50.196Z,66.90
2019-05-09T22:17:20.288Z,66.30
2019-05-09T22:19:48.966Z,65.80
2019-05-09T22:22:17.414Z,66.70
2019-05-09T22:24:45.922Z,66.40
2019-05-09T22:27:14.404Z,66.50
2019-05-09T22:29:42.879Z,68.00
2019-05-09T22:32:11.398Z,66.60
2019-05-09T22:34:39.884Z,66.90
2019-05-09T22:37:08.477Z,66.90
2019-05-09T22:39:36.928Z,67.60
2019-05-09T22:42:05.482Z,67.50
2019-05-09T22:44:33.946Z,67.40
2019-05-09T22:47:02.392Z,67.60
2019-05-09T22:49:30.898Z,67.60
2019-05-09T22:51:59.603Z,67.90
2019-05-09T22:54:28.158Z,67.90
2019-05-09T22:56:56.644Z,68.00
2019-05-09T22:59:25.108Z,68.30
2019-05-09T23:01:53.567Z,68.40
2019-05-09T23:04:22.065Z,68.60
2019-05-09T23:06:50.795Z,68.00
2019-05-09T23:09:19.429Z,68.60
2019-05-09T23:11:47.911Z,68.00
2019-05-09T23:14:16.374Z,68.20
2019-05-09T23:16:44.840Z,68.00
2019-05-09T23:19:13.334Z,68.50
2019-05-09T23:21:41.807Z,68.50
2019-05-09T23:24:26.518Z,68.70
2019-05-09T23:26:42.457Z,69.60
2019-05-09T23:29:10.914Z,68.80
2019-05-09T23:31:46.736Z,69.40
2019-05-09T23:34:15.207Z,70.00
2019-05-09T23:36:43.650Z,71.10
2019-05-09T23:39:13.779Z,73.30
2019-05-09T23:41:42.231Z,74.90
2019-05-09T23:44:10.690Z,76.00
2019-05-09T23:46:39.208Z,76.40
2019-05-09T23:49:07.668Z,77.10
2019-05-09T23:51:51.363Z,77.50
2019-05-09T23:54:47.804Z,77.60
2019-05-09T23:57:28.170Z,77.60
